sensor_id;sensor_type;location;lat;lon;timestamp;temperature;humidity
16505;HTU21D;8365;51.030;4.696;2023-03-16T00:00:44;7.03;102.92
16505;HTU21D;8365;51.030;4.696;2023-03-16T00:03:15;6.96;103.22
16505;HTU21D;8365;51.030;4.696;2023-03-16T00:05:50;7.04;102.54
16505;HTU21D;8365;51.030;4.696;2023-03-16T00:08:21;7.09;102.59
16505;HTU21D;8365;51.030;4.696;2023-03-16T00:10:51;7.13;101.70
16505;HTU21D;8365;51.030;4.696;2023-03-16T00:13:24;7.09;102.13
16505;HTU21D;8365;51.030;4.696;2023-03-16T00:15:57;7.07;103.12
16505;HTU21D;8365;51.030;4.696;2023-03-16T00:18:28;7.05;102.74
16505;HTU21D;8365;51.030;4.696;2023-03-16T00:21:00;6.99;103.14
16505;HTU21D;8365;51.030;4.696;2023-03-16T00:23:35;7.04;103.74
16505;HTU21D;8365;51.030;4.696;2023-03-16T00:26:07;7.05;103.40
16505;HTU21D;8365;51.030;4.696;2023-03-16T00:28:38;7.03;103.45
16505;HTU21D;8365;51.030;4.696;2023-03-16T00:31:11;7.16;103.03
16505;HTU21D;8365;51.030;4.696;2023-03-16T00:33:42;7.15;103.14
16505;HTU21D;8365;51.030;4.696;2023-03-16T00:36:12;7.12;103.50
16505;HTU21D;8365;51.030;4.696;2023-03-16T00:38:43;7.09;103.75
16505;HTU21D;8365;51.030;4.696;2023-03-16T00:41:14;7.11;104.13
16505;HTU21D;8365;51.030;4.696;2023-03-16T00:43:45;7.14;104.66
16505;HTU21D;8365;51.030;4.696;2023-03-16T00:46:18;7.19;104.63
16505;HTU21D;8365;51.030;4.696;2023-03-16T00:48:57;7.01;104.53
16505;HTU21D;8365;51.030;4.696;2023-03-16T00:51:28;6.91;105.40
16505;HTU21D;8365;51.030;4.696;2023-03-16T00:54:00;6.98;105.51
16505;HTU21D;8365;51.030;4.696;2023-03-16T00:56:34;7.01;104.66
16505;HTU21D;8365;51.030;4.696;2023-03-16T00:59:04;7.15;104.42
16505;HTU21D;8365;51.030;4.696;2023-03-16T01:01:35;7.31;103.72
16505;HTU21D;8365;51.030;4.696;2023-03-16T01:04:07;7.19;103.74
16505;HTU21D;8365;51.030;4.696;2023-03-16T01:06:40;7.23;103.86
16505;HTU21D;8365;51.030;4.696;2023-03-16T01:09:11;7.32;104.45
16505;HTU21D;8365;51.030;4.696;2023-03-16T01:11:42;7.43;102.93
16505;HTU21D;8365;51.030;4.696;2023-03-16T01:14:12;7.30;103.80
16505;HTU21D;8365;51.030;4.696;2023-03-16T01:16:45;7.10;104.82
16505;HTU21D;8365;51.030;4.696;2023-03-16T01:19:15;7.14;105.11
16505;HTU21D;8365;51.030;4.696;2023-03-16T01:21:47;7.13;105.21
16505;HTU21D;8365;51.030;4.696;2023-03-16T01:24:18;7.24;104.65
16505;HTU21D;8365;51.030;4.696;2023-03-16T01:26:50;7.23;104.92
16505;HTU21D;8365;51.030;4.696;2023-03-16T01:29:23;7.25;105.07
16505;HTU21D;8365;51.030;4.696;2023-03-16T01:31:54;7.33;104.04
16505;HTU21D;8365;51.030;4.696;2023-03-16T01:34:25;7.52;104.36
16505;HTU21D;8365;51.030;4.696;2023-03-16T01:36:55;7.67;102.89
16505;HTU21D;8365;51.030;4.696;2023-03-16T01:39:29;7.40;103.48
16505;HTU21D;8365;51.030;4.696;2023-03-16T01:42:00;7.32;104.16
16505;HTU21D;8365;51.030;4.696;2023-03-16T01:44:55;7.41;103.90
16505;HTU21D;8365;51.030;4.696;2023-03-16T01:47:26;7.47;104.49
16505;HTU21D;8365;51.030;4.696;2023-03-16T01:49:57;7.44;104.16
16505;HTU21D;8365;51.030;4.696;2023-03-16T01:52:31;7.48;104.15
16505;HTU21D;8365;51.030;4.696;2023-03-16T01:55:07;7.46;104.77
16505;HTU21D;8365;51.030;4.696;2023-03-16T01:57:41;7.48;103.52
16505;HTU21D;8365;51.030;4.696;2023-03-16T02:00:16;7.46;104.20
16505;HTU21D;8365;51.030;4.696;2023-03-16T02:02:58;7.29;104.28
16505;HTU21D;8365;51.030;4.696;2023-03-16T02:05:37;7.30;104.69
16505;HTU21D;8365;51.030;4.696;2023-03-16T02:08:14;7.49;103.86
16505;HTU21D;8365;51.030;4.696;2023-03-16T02:10:45;7.57;103.02
16505;HTU21D;8365;51.030;4.696;2023-03-16T02:13:16;7.63;102.87
16505;HTU21D;8365;51.030;4.696;2023-03-16T02:15:48;7.62;102.90
16505;HTU21D;8365;51.030;4.696;2023-03-16T02:18:19;7.62;103.54
16505;HTU21D;8365;51.030;4.696;2023-03-16T02:24:02;7.43;102.95
16505;HTU21D;8365;51.030;4.696;2023-03-16T02:26:49;7.42;104.17
16505;HTU21D;8365;51.030;4.696;2023-03-16T02:32:08;7.35;104.87
16505;HTU21D;8365;51.030;4.696;2023-03-16T02:34:40;7.37;106.03
16505;HTU21D;8365;51.030;4.696;2023-03-16T02:37:11;7.33;106.81
16505;HTU21D;8365;51.030;4.696;2023-03-16T02:39:42;7.52;107.38
16505;HTU21D;8365;51.030;4.696;2023-03-16T02:42:16;7.41;107.62
16505;HTU21D;8365;51.030;4.696;2023-03-16T02:44:57;7.27;108.80
16505;HTU21D;8365;51.030;4.696;2023-03-16T02:47:42;7.41;108.44
16505;HTU21D;8365;51.030;4.696;2023-03-16T02:50:13;7.34;109.84
16505;HTU21D;8365;51.030;4.696;2023-03-16T02:52:45;7.37;109.88
16505;HTU21D;8365;51.030;4.696;2023-03-16T02:55:17;7.53;109.16
16505;HTU21D;8365;51.030;4.696;2023-03-16T02:57:48;7.42;108.85
16505;HTU21D;8365;51.030;4.696;2023-03-16T03:00:18;7.55;109.23
16505;HTU21D;8365;51.030;4.696;2023-03-16T03:02:51;7.56;109.86
16505;HTU21D;8365;51.030;4.696;2023-03-16T03:05:21;7.37;111.02
16505;HTU21D;8365;51.030;4.696;2023-03-16T03:07:52;7.33;113.16
16505;HTU21D;8365;51.030;4.696;2023-03-16T03:10:22;7.13;114.41
16505;HTU21D;8365;51.030;4.696;2023-03-16T03:12:53;7.38;114.26
16505;HTU21D;8365;51.030;4.696;2023-03-16T03:15:24;7.05;116.66
16505;HTU21D;8365;51.030;4.696;2023-03-16T03:17:55;6.98;117.57
16505;HTU21D;8365;51.030;4.696;2023-03-16T03:20:29;6.89;118.99
16505;HTU21D;8365;51.030;4.696;2023-03-16T03:23:01;6.87;118.79
16505;HTU21D;8365;51.030;4.696;2023-03-16T03:25:32;6.93;118.99
16505;HTU21D;8365;51.030;4.696;2023-03-16T03:28:04;6.86;118.99
16505;HTU21D;8365;51.030;4.696;2023-03-16T03:30:34;6.89;118.99
16505;HTU21D;8365;51.030;4.696;2023-03-16T03:33:05;6.81;118.99
16505;HTU21D;8365;51.030;4.696;2023-03-16T03:35:38;6.71;118.99
16505;HTU21D;8365;51.030;4.696;2023-03-16T03:38:08;6.69;118.99
16505;HTU21D;8365;51.030;4.696;2023-03-16T03:40:39;6.68;118.99
16505;HTU21D;8365;51.030;4.696;2023-03-16T03:43:09;6.80;118.99
16505;HTU21D;8365;51.030;4.696;2023-03-16T03:45:39;6.61;118.99
16505;HTU21D;8365;51.030;4.696;2023-03-16T03:48:10;6.63;118.99
16505;HTU21D;8365;51.030;4.696;2023-03-16T03:50:40;6.69;118.99
16505;HTU21D;8365;51.030;4.696;2023-03-16T03:53:11;6.55;118.99
16505;HTU21D;8365;51.030;4.696;2023-03-16T03:55:42;6.46;118.99
16505;HTU21D;8365;51.030;4.696;2023-03-16T03:58:15;6.40;118.99
16505;HTU21D;8365;51.030;4.696;2023-03-16T04:00:46;6.49;118.99
16505;HTU21D;8365;51.030;4.696;2023-03-16T04:03:16;6.49;118.99
16505;HTU21D;8365;51.030;4.696;2023-03-16T04:05:47;6.54;118.99
16505;HTU21D;8365;51.030;4.696;2023-03-16T04:08:17;6.45;118.99
16505;HTU21D;8365;51.030;4.696;2023-03-16T04:10:48;6.45;118.99
16505;HTU21D;8365;51.030;4.696;2023-03-16T04:13:20;6.48;118.99
16505;HTU21D;8365;51.030;4.696;2023-03-16T04:15:58;6.48;118.99
16505;HTU21D;8365;51.030;4.696;2023-03-16T04:18:30;6.40;118.99
16505;HTU21D;8365;51.030;4.696;2023-03-16T04:21:12;6.38;118.99
16505;HTU21D;8365;51.030;4.696;2023-03-16T04:23:43;6.34;118.99
16505;HTU21D;8365;51.030;4.696;2023-03-16T04:26:14;6.49;118.99
16505;HTU21D;8365;51.030;4.696;2023-03-16T04:28:45;6.43;118.99
16505;HTU21D;8365;51.030;4.696;2023-03-16T04:31:16;6.48;118.99
16505;HTU21D;8365;51.030;4.696;2023-03-16T04:33:49;6.50;118.99
16505;HTU21D;8365;51.030;4.696;2023-03-16T04:36:20;6.42;118.99
16505;HTU21D;8365;51.030;4.696;2023-03-16T04:38:53;6.46;118.99
16505;HTU21D;8365;51.030;4.696;2023-03-16T04:41:24;6.43;118.99
16505;HTU21D;8365;51.030;4.696;2023-03-16T04:43:55;6.46;118.99
16505;HTU21D;8365;51.030;4.696;2023-03-16T04:46:27;6.45;118.99
16505;HTU21D;8365;51.030;4.696;2023-03-16T04:48:58;6.48;118.99
16505;HTU21D;8365;51.030;4.696;2023-03-16T04:51:29;6.49;118.99
16505;HTU21D;8365;51.030;4.696;2023-03-16T04:53:59;6.48;118.99
16505;HTU21D;8365;51.030;4.696;2023-03-16T04:56:31;6.53;118.99
16505;HTU21D;8365;51.030;4.696;2023-03-16T04:59:03;6.51;118.99
16505;HTU21D;8365;51.030;4.696;2023-03-16T05:01:33;6.55;118.99
16505;HTU21D;8365;51.030;4.696;2023-03-16T05:04:04;6.52;118.99
16505;HTU21D;8365;51.030;4.696;2023-03-16T05:06:34;6.65;118.99
16505;HTU21D;8365;51.030;4.696;2023-03-16T05:09:06;6.53;118.99
16505;HTU21D;8365;51.030;4.696;2023-03-16T05:11:38;6.54;118.75
16505;HTU21D;8365;51.030;4.696;2023-03-16T05:14:08;6.54;118.57
16505;HTU21D;8365;51.030;4.696;2023-03-16T05:16:39;6.51;118.99
16505;HTU21D;8365;51.030;4.696;2023-03-16T05:19:11;6.48;118.99
16505;HTU21D;8365;51.030;4.696;2023-03-16T05:21:41;6.52;118.33
16505;HTU21D;8365;51.030;4.696;2023-03-16T05:24:12;6.55;118.07
16505;HTU21D;8365;51.030;4.696;2023-03-16T05:26:42;6.59;117.92
16505;HTU21D;8365;51.030;4.696;2023-03-16T05:29:13;6.58;117.63
16505;HTU21D;8365;51.030;4.696;2023-03-16T05:31:44;6.61;117.17
16505;HTU21D;8365;51.030;4.696;2023-03-16T05:34:19;6.56;117.02
16505;HTU21D;8365;51.030;4.696;2023-03-16T05:36:52;6.54;117.71
16505;HTU21D;8365;51.030;4.696;2023-03-16T05:39:23;6.57;116.99
16505;HTU21D;8365;51.030;4.696;2023-03-16T05:41:53;6.64;118.97
16505;HTU21D;8365;51.030;4.696;2023-03-16T05:44:24;6.58;116.68
16505;HTU21D;8365;51.030;4.696;2023-03-16T05:46:54;6.58;117.99
16505;HTU21D;8365;51.030;4.696;2023-03-16T05:49:26;6.58;117.08
16505;HTU21D;8365;51.030;4.696;2023-03-16T05:51:57;6.59;117.47
16505;HTU21D;8365;51.030;4.696;2023-03-16T05:54:27;6.63;116.98
16505;HTU21D;8365;51.030;4.696;2023-03-16T05:56:58;6.60;115.77
16505;HTU21D;8365;51.030;4.696;2023-03-16T05:59:28;6.58;116.25
16505;HTU21D;8365;51.030;4.696;2023-03-16T06:01:59;6.66;115.59
16505;HTU21D;8365;51.030;4.696;2023-03-16T06:04:29;6.74;115.39
16505;HTU21D;8365;51.030;4.696;2023-03-16T06:07:01;6.73;114.94
16505;HTU21D;8365;51.030;4.696;2023-03-16T06:09:32;6.78;114.10
16505;HTU21D;8365;51.030;4.696;2023-03-16T06:12:02;6.78;114.09
16505;HTU21D;8365;51.030;4.696;2023-03-16T06:14:33;6.83;112.87
16505;HTU21D;8365;51.030;4.696;2023-03-16T06:17:04;6.81;114.22
16505;HTU21D;8365;51.030;4.696;2023-03-16T06:19:34;6.80;113.32
16505;HTU21D;8365;51.030;4.696;2023-03-16T06:22:05;6.84;113.40
16505;HTU21D;8365;51.030;4.696;2023-03-16T06:24:35;6.82;113.02
16505;HTU21D;8365;51.030;4.696;2023-03-16T06:27:06;6.88;112.03
16505;HTU21D;8365;51.030;4.696;2023-03-16T06:29:39;6.88;113.63
16505;HTU21D;8365;51.030;4.696;2023-03-16T06:32:09;6.89;111.87
16505;HTU21D;8365;51.030;4.696;2023-03-16T06:34:40;6.93;112.57
16505;HTU21D;8365;51.030;4.696;2023-03-16T06:37:11;6.96;111.45
16505;HTU21D;8365;51.030;4.696;2023-03-16T06:39:41;7.03;112.17
16505;HTU21D;8365;51.030;4.696;2023-03-16T06:42:12;6.96;111.32
16505;HTU21D;8365;51.030;4.696;2023-03-16T06:44:42;6.95;111.78
16505;HTU21D;8365;51.030;4.696;2023-03-16T06:47:15;6.97;111.32
16505;HTU21D;8365;51.030;4.696;2023-03-16T06:49:47;6.98;111.93
16505;HTU21D;8365;51.030;4.696;2023-03-16T06:52:17;7.00;112.16
16505;HTU21D;8365;51.030;4.696;2023-03-16T06:54:48;7.03;111.95
16505;HTU21D;8365;51.030;4.696;2023-03-16T06:57:19;7.05;110.96
16505;HTU21D;8365;51.030;4.696;2023-03-16T06:59:49;7.05;110.94
16505;HTU21D;8365;51.030;4.696;2023-03-16T07:02:20;7.09;110.61
16505;HTU21D;8365;51.030;4.696;2023-03-16T07:04:54;7.11;110.33
16505;HTU21D;8365;51.030;4.696;2023-03-16T07:07:24;7.14;109.42
16505;HTU21D;8365;51.030;4.696;2023-03-16T07:09:56;7.15;110.07
16505;HTU21D;8365;51.030;4.696;2023-03-16T07:12:27;7.22;108.25
16505;HTU21D;8365;51.030;4.696;2023-03-16T07:14:57;7.23;109.19
16505;HTU21D;8365;51.030;4.696;2023-03-16T07:17:30;7.24;108.91
16505;HTU21D;8365;51.030;4.696;2023-03-16T07:20:02;7.29;109.19
16505;HTU21D;8365;51.030;4.696;2023-03-16T07:22:35;7.26;107.52
16505;HTU21D;8365;51.030;4.696;2023-03-16T07:25:06;7.28;107.58
16505;HTU21D;8365;51.030;4.696;2023-03-16T07:27:37;7.34;106.92
16505;HTU21D;8365;51.030;4.696;2023-03-16T07:30:08;7.35;107.50
16505;HTU21D;8365;51.030;4.696;2023-03-16T07:32:41;7.47;105.56
16505;HTU21D;8365;51.030;4.696;2023-03-16T07:35:11;7.54;106.30
16505;HTU21D;8365;51.030;4.696;2023-03-16T07:37:42;7.63;106.14
16505;HTU21D;8365;51.030;4.696;2023-03-16T07:40:13;7.54;103.90
16505;HTU21D;8365;51.030;4.696;2023-03-16T07:42:44;7.60;104.46
16505;HTU21D;8365;51.030;4.696;2023-03-16T07:45:16;7.64;104.63
16505;HTU21D;8365;51.030;4.696;2023-03-16T07:47:47;7.72;104.71
16505;HTU21D;8365;51.030;4.696;2023-03-16T07:50:18;7.56;103.34
16505;HTU21D;8365;51.030;4.696;2023-03-16T07:52:49;7.65;103.07
16505;HTU21D;8365;51.030;4.696;2023-03-16T07:55:19;7.75;104.37
16505;HTU21D;8365;51.030;4.696;2023-03-16T07:57:50;7.84;102.61
16505;HTU21D;8365;51.030;4.696;2023-03-16T08:00:20;7.96;102.23
16505;HTU21D;8365;51.030;4.696;2023-03-16T08:02:53;8.11;99.80
16505;HTU21D;8365;51.030;4.696;2023-03-16T08:05:25;8.26;99.75
16505;HTU21D;8365;51.030;4.696;2023-03-16T08:07:55;8.45;97.54
16505;HTU21D;8365;51.030;4.696;2023-03-16T08:10:27;8.37;96.72
16505;HTU21D;8365;51.030;4.696;2023-03-16T08:12:58;8.70;98.00
16505;HTU21D;8365;51.030;4.696;2023-03-16T08:15:28;8.73;97.14
16505;HTU21D;8365;51.030;4.696;2023-03-16T08:18:08;8.65;97.31
16505;HTU21D;8365;51.030;4.696;2023-03-16T08:20:39;8.67;97.21
16505;HTU21D;8365;51.030;4.696;2023-03-16T08:23:11;8.63;97.08
16505;HTU21D;8365;51.030;4.696;2023-03-16T08:25:44;8.68;96.79
16505;HTU21D;8365;51.030;4.696;2023-03-16T08:28:15;8.73;95.38
16505;HTU21D;8365;51.030;4.696;2023-03-16T08:30:52;8.79;93.10
16505;HTU21D;8365;51.030;4.696;2023-03-16T08:33:24;8.73;93.71
16505;HTU21D;8365;51.030;4.696;2023-03-16T08:35:55;8.95;94.08
16505;HTU21D;8365;51.030;4.696;2023-03-16T08:38:26;9.29;91.39
16505;HTU21D;8365;51.030;4.696;2023-03-16T08:40:56;9.48;91.58
16505;HTU21D;8365;51.030;4.696;2023-03-16T08:43:29;9.56;89.31
16505;HTU21D;8365;51.030;4.696;2023-03-16T08:46:04;10.31;88.35
16505;HTU21D;8365;51.030;4.696;2023-03-16T08:48:35;10.40;87.99
16505;HTU21D;8365;51.030;4.696;2023-03-16T08:51:07;10.88;83.42
16505;HTU21D;8365;51.030;4.696;2023-03-16T08:53:38;10.71;84.24
16505;HTU21D;8365;51.030;4.696;2023-03-16T08:56:11;11.53;82.49
16505;HTU21D;8365;51.030;4.696;2023-03-16T08:58:41;11.30;82.00
16505;HTU21D;8365;51.030;4.696;2023-03-16T09:01:15;11.29;76.92
16505;HTU21D;8365;51.030;4.696;2023-03-16T09:03:49;11.63;75.89
16505;HTU21D;8365;51.030;4.696;2023-03-16T09:06:20;11.48;75.52
16505;HTU21D;8365;51.030;4.696;2023-03-16T09:08:51;11.75;72.64
16505;HTU21D;8365;51.030;4.696;2023-03-16T09:16:43;11.52;72.96
16505;HTU21D;8365;51.030;4.696;2023-03-16T09:19:13;11.19;70.32
16505;HTU21D;8365;51.030;4.696;2023-03-16T09:21:47;11.31;71.79
16505;HTU21D;8365;51.030;4.696;2023-03-16T09:24:19;10.96;70.10
16505;HTU21D;8365;51.030;4.696;2023-03-16T09:26:49;11.24;68.76
16505;HTU21D;8365;51.030;4.696;2023-03-16T09:29:20;11.28;67.43
16505;HTU21D;8365;51.030;4.696;2023-03-16T09:31:51;11.31;66.44
16505;HTU21D;8365;51.030;4.696;2023-03-16T09:34:21;11.32;67.97
16505;HTU21D;8365;51.030;4.696;2023-03-16T09:36:52;10.89;68.74
16505;HTU21D;8365;51.030;4.696;2023-03-16T09:39:23;11.28;68.12
16505;HTU21D;8365;51.030;4.696;2023-03-16T09:47:37;11.62;66.70
16505;HTU21D;8365;51.030;4.696;2023-03-16T09:50:15;11.39;66.17
16505;HTU21D;8365;51.030;4.696;2023-03-16T09:55:32;11.81;63.64
16505;HTU21D;8365;51.030;4.696;2023-03-16T09:58:09;11.74;64.36
16505;HTU21D;8365;51.030;4.696;2023-03-16T10:10:04;12.57;60.47
16505;HTU21D;8365;51.030;4.696;2023-03-16T10:12:46;13.27;59.53
16505;HTU21D;8365;51.030;4.696;2023-03-16T10:15:24;13.11;59.77
16505;HTU21D;8365;51.030;4.696;2023-03-16T10:18:16;13.30;58.83
16505;HTU21D;8365;51.030;4.696;2023-03-16T10:20:47;13.37;57.51
16505;HTU21D;8365;51.030;4.696;2023-03-16T10:23:21;14.24;54.91
16505;HTU21D;8365;51.030;4.696;2023-03-16T10:25:55;15.13;52.62
16505;HTU21D;8365;51.030;4.696;2023-03-16T10:28:27;15.21;52.20
16505;HTU21D;8365;51.030;4.696;2023-03-16T10:31:00;15.19;53.13
16505;HTU21D;8365;51.030;4.696;2023-03-16T10:33:33;15.17;51.97
16505;HTU21D;8365;51.030;4.696;2023-03-16T10:36:30;14.86;50.02
16505;HTU21D;8365;51.030;4.696;2023-03-16T10:39:07;14.58;49.84
16505;HTU21D;8365;51.030;4.696;2023-03-16T10:41:42;14.59;49.89
16505;HTU21D;8365;51.030;4.696;2023-03-16T10:44:15;15.54;48.21
16505;HTU21D;8365;51.030;4.696;2023-03-16T10:47:15;15.72;46.59
16505;HTU21D;8365;51.030;4.696;2023-03-16T10:49:40;15.55;47.76
16505;HTU21D;8365;51.030;4.696;2023-03-16T10:55:10;15.72;46.85
16505;HTU21D;8365;51.030;4.696;2023-03-16T10:57:46;16.15;44.87
16505;HTU21D;8365;51.030;4.696;2023-03-16T11:00:24;16.01;46.18
16505;HTU21D;8365;51.030;4.696;2023-03-16T11:02:58;15.29;47.78
16505;HTU21D;8365;51.030;4.696;2023-03-16T11:05:33;15.08;46.93
16505;HTU21D;8365;51.030;4.696;2023-03-16T11:08:07;15.16;46.27
16505;HTU21D;8365;51.030;4.696;2023-03-16T11:10:46;15.70;45.80
16505;HTU21D;8365;51.030;4.696;2023-03-16T11:13:19;15.49;45.86
16505;HTU21D;8365;51.030;4.696;2023-03-16T11:15:55;15.48;45.09
16505;HTU21D;8365;51.030;4.696;2023-03-16T11:18:31;14.32;47.25
16505;HTU21D;8365;51.030;4.696;2023-03-16T11:21:29;14.85;47.24
16505;HTU21D;8365;51.030;4.696;2023-03-16T11:24:04;14.33;47.18
16505;HTU21D;8365;51.030;4.696;2023-03-16T11:26:39;14.62;45.96
16505;HTU21D;8365;51.030;4.696;2023-03-16T11:29:21;14.73;45.86
16505;HTU21D;8365;51.030;4.696;2023-03-16T11:31:58;15.58;45.16
16505;HTU21D;8365;51.030;4.696;2023-03-16T11:34:32;15.48;43.29
16505;HTU21D;8365;51.030;4.696;2023-03-16T11:43:00;16.22;41.60
16505;HTU21D;8365;51.030;4.696;2023-03-16T11:45:50;16.12;42.93
16505;HTU21D;8365;51.030;4.696;2023-03-16T11:54:21;16.29;43.07
16505;HTU21D;8365;51.030;4.696;2023-03-16T11:56:56;16.34;40.86
16505;HTU21D;8365;51.030;4.696;2023-03-16T12:04:44;15.68;43.81
16505;HTU21D;8365;51.030;4.696;2023-03-16T12:15:54;16.70;41.67
16505;HTU21D;8365;51.030;4.696;2023-03-16T12:18:40;17.21;40.68
16505;HTU21D;8365;51.030;4.696;2023-03-16T12:21:24;17.33;39.07
16505;HTU21D;8365;51.030;4.696;2023-03-16T12:23:59;17.00;40.06
16505;HTU21D;8365;51.030;4.696;2023-03-16T12:26:34;17.67;40.34
16505;HTU21D;8365;51.030;4.696;2023-03-16T12:29:22;17.29;40.75
16505;HTU21D;8365;51.030;4.696;2023-03-16T12:32:06;17.17;41.45
16505;HTU21D;8365;51.030;4.696;2023-03-16T12:35:02;17.39;40.02
16505;HTU21D;8365;51.030;4.696;2023-03-16T12:39:00;16.92;40.24
16505;HTU21D;8365;51.030;4.696;2023-03-16T12:41:13;17.68;38.79
16505;HTU21D;8365;51.030;4.696;2023-03-16T12:43:54;17.98;38.54
16505;HTU21D;8365;51.030;4.696;2023-03-16T12:49:01;17.62;38.92
16505;HTU21D;8365;51.030;4.696;2023-03-16T12:51:37;17.72;39.29
16505;HTU21D;8365;51.030;4.696;2023-03-16T12:54:23;17.32;39.53
16505;HTU21D;8365;51.030;4.696;2023-03-16T12:57:03;17.40;40.33
16505;HTU21D;8365;51.030;4.696;2023-03-16T12:59:46;18.26;40.01
16505;HTU21D;8365;51.030;4.696;2023-03-16T13:02:33;18.48;38.83
16505;HTU21D;8365;51.030;4.696;2023-03-16T13:05:10;19.60;37.66
16505;HTU21D;8365;51.030;4.696;2023-03-16T13:07:49;18.24;37.24
16505;HTU21D;8365;51.030;4.696;2023-03-16T13:10:21;17.97;39.72
16505;HTU21D;8365;51.030;4.696;2023-03-16T13:12:54;18.32;36.72
16505;HTU21D;8365;51.030;4.696;2023-03-16T13:15:27;18.41;37.42
16505;HTU21D;8365;51.030;4.696;2023-03-16T13:18:20;18.73;36.79
16505;HTU21D;8365;51.030;4.696;2023-03-16T13:21:00;18.74;36.13
16505;HTU21D;8365;51.030;4.696;2023-03-16T13:23:58;19.25;35.24
16505;HTU21D;8365;51.030;4.696;2023-03-16T13:29:21;20.14;33.22
16505;HTU21D;8365;51.030;4.696;2023-03-16T13:31:55;20.18;34.02
16505;HTU21D;8365;51.030;4.696;2023-03-16T13:34:29;20.19;34.71
16505;HTU21D;8365;51.030;4.696;2023-03-16T13:37:00;20.53;32.70
16505;HTU21D;8365;51.030;4.696;2023-03-16T13:39:35;19.53;34.99
16505;HTU21D;8365;51.030;4.696;2023-03-16T13:42:17;19.55;33.91
16505;HTU21D;8365;51.030;4.696;2023-03-16T13:44:51;19.59;34.28
16505;HTU21D;8365;51.030;4.696;2023-03-16T13:47:25;19.09;34.77
16505;HTU21D;8365;51.030;4.696;2023-03-16T13:49:58;19.44;34.16
16505;HTU21D;8365;51.030;4.696;2023-03-16T13:52:32;18.37;35.69
16505;HTU21D;8365;51.030;4.696;2023-03-16T13:55:15;18.28;35.56
16505;HTU21D;8365;51.030;4.696;2023-03-16T13:57:46;17.93;36.44
16505;HTU21D;8365;51.030;4.696;2023-03-16T14:02:54;19.12;34.48
16505;HTU21D;8365;51.030;4.696;2023-03-16T14:05:31;19.76;33.49
16505;HTU21D;8365;51.030;4.696;2023-03-16T14:08:15;20.19;33.86
16505;HTU21D;8365;51.030;4.696;2023-03-16T14:10:46;20.51;30.71
16505;HTU21D;8365;51.030;4.696;2023-03-16T14:16:17;19.73;32.11
16505;HTU21D;8365;51.030;4.696;2023-03-16T14:21:29;20.51;32.00
16505;HTU21D;8365;51.030;4.696;2023-03-16T14:24:05;20.57;31.53
16505;HTU21D;8365;51.030;4.696;2023-03-16T14:26:45;20.28;30.64
16505;HTU21D;8365;51.030;4.696;2023-03-16T14:29:22;20.02;31.96
16505;HTU21D;8365;51.030;4.696;2023-03-16T14:31:57;20.44;30.40
16505;HTU21D;8365;51.030;4.696;2023-03-16T14:34:37;20.50;30.78
16505;HTU21D;8365;51.030;4.696;2023-03-16T14:37:13;20.21;31.05
16505;HTU21D;8365;51.030;4.696;2023-03-16T14:39:56;20.39;31.57
16505;HTU21D;8365;51.030;4.696;2023-03-16T14:42:31;20.71;29.29
16505;HTU21D;8365;51.030;4.696;2023-03-16T14:45:08;20.26;31.20
16505;HTU21D;8365;51.030;4.696;2023-03-16T14:47:47;19.99;31.90
16505;HTU21D;8365;51.030;4.696;2023-03-16T14:50:24;19.55;31.61
16505;HTU21D;8365;51.030;4.696;2023-03-16T14:52:55;19.47;31.75
16505;HTU21D;8365;51.030;4.696;2023-03-16T14:55:26;19.74;31.89
16505;HTU21D;8365;51.030;4.696;2023-03-16T14:57:57;18.20;34.44
16505;HTU21D;8365;51.030;4.696;2023-03-16T15:00:28;18.27;34.06
16505;HTU21D;8365;51.030;4.696;2023-03-16T15:03:04;18.29;34.33
16505;HTU21D;8365;51.030;4.696;2023-03-16T15:05:42;17.92;34.77
16505;HTU21D;8365;51.030;4.696;2023-03-16T15:08:27;18.05;35.33
16505;HTU21D;8365;51.030;4.696;2023-03-16T15:11:02;18.17;34.34
16505;HTU21D;8365;51.030;4.696;2023-03-16T15:13:35;18.59;34.21
16505;HTU21D;8365;51.030;4.696;2023-03-16T15:16:29;18.48;34.61
16505;HTU21D;8365;51.030;4.696;2023-03-16T15:18:59;18.17;35.28
16505;HTU21D;8365;51.030;4.696;2023-03-16T15:21:30;19.20;33.68
16505;HTU21D;8365;51.030;4.696;2023-03-16T15:24:03;18.89;33.01
16505;HTU21D;8365;51.030;4.696;2023-03-16T15:26:34;18.74;34.63
16505;HTU21D;8365;51.030;4.696;2023-03-16T15:29:05;18.95;33.89
16505;HTU21D;8365;51.030;4.696;2023-03-16T15:31:35;19.42;32.52
16505;HTU21D;8365;51.030;4.696;2023-03-16T15:34:06;19.03;33.04
16505;HTU21D;8365;51.030;4.696;2023-03-16T15:36:37;18.72;33.31
16505;HTU21D;8365;51.030;4.696;2023-03-16T15:39:19;18.39;34.38
16505;HTU21D;8365;51.030;4.696;2023-03-16T15:41:53;19.00;33.47
16505;HTU21D;8365;51.030;4.696;2023-03-16T15:44:24;18.70;34.01
16505;HTU21D;8365;51.030;4.696;2023-03-16T15:46:54;18.68;34.98
16505;HTU21D;8365;51.030;4.696;2023-03-16T15:49:27;19.42;33.54
16505;HTU21D;8365;51.030;4.696;2023-03-16T15:51:57;19.83;33.02
16505;HTU21D;8365;51.030;4.696;2023-03-16T15:54:28;19.77;32.72
16505;HTU21D;8365;51.030;4.696;2023-03-16T15:56:59;19.75;32.97
16505;HTU21D;8365;51.030;4.696;2023-03-16T15:59:33;18.50;34.72
16505;HTU21D;8365;51.030;4.696;2023-03-16T16:02:24;17.98;35.24
16505;HTU21D;8365;51.030;4.696;2023-03-16T16:04:57;17.89;35.46
16505;HTU21D;8365;51.030;4.696;2023-03-16T16:07:33;17.88;36.66
16505;HTU21D;8365;51.030;4.696;2023-03-16T16:10:04;17.75;36.14
16505;HTU21D;8365;51.030;4.696;2023-03-16T16:12:35;17.72;36.22
16505;HTU21D;8365;51.030;4.696;2023-03-16T16:15:21;17.90;36.40
16505;HTU21D;8365;51.030;4.696;2023-03-16T16:17:56;18.09;35.89
16505;HTU21D;8365;51.030;4.696;2023-03-16T16:20:30;18.25;36.00
16505;HTU21D;8365;51.030;4.696;2023-03-16T16:23:02;18.22;36.89
16505;HTU21D;8365;51.030;4.696;2023-03-16T16:25:38;18.04;37.62
16505;HTU21D;8365;51.030;4.696;2023-03-16T16:28:22;18.07;38.08
16505;HTU21D;8365;51.030;4.696;2023-03-16T16:30:56;18.09;38.17
16505;HTU21D;8365;51.030;4.696;2023-03-16T16:33:30;18.51;37.51
16505;HTU21D;8365;51.030;4.696;2023-03-16T16:36:04;18.62;37.32
16505;HTU21D;8365;51.030;4.696;2023-03-16T16:38:36;18.46;38.09
16505;HTU21D;8365;51.030;4.696;2023-03-16T16:41:08;18.17;37.76
16505;HTU21D;8365;51.030;4.696;2023-03-16T16:43:45;17.59;39.23
16505;HTU21D;8365;51.030;4.696;2023-03-16T16:46:21;17.56;40.00
16505;HTU21D;8365;51.030;4.696;2023-03-16T16:51:35;17.13;40.85
16505;HTU21D;8365;51.030;4.696;2023-03-16T16:54:27;16.65;41.97
16505;HTU21D;8365;51.030;4.696;2023-03-16T16:56:58;16.19;43.10
16505;HTU21D;8365;51.030;4.696;2023-03-16T16:59:32;16.20;44.53
16505;HTU21D;8365;51.030;4.696;2023-03-16T17:02:27;15.77;44.66
16505;HTU21D;8365;51.030;4.696;2023-03-16T17:04:58;15.58;44.87
16505;HTU21D;8365;51.030;4.696;2023-03-16T17:07:29;15.39;44.78
16505;HTU21D;8365;51.030;4.696;2023-03-16T17:10:00;15.28;45.69
16505;HTU21D;8365;51.030;4.696;2023-03-16T17:12:31;15.14;45.99
16505;HTU21D;8365;51.030;4.696;2023-03-16T17:15:02;14.99;47.40
16505;HTU21D;8365;51.030;4.696;2023-03-16T17:17:32;14.82;46.16
16505;HTU21D;8365;51.030;4.696;2023-03-16T17:20:13;14.83;46.61
16505;HTU21D;8365;51.030;4.696;2023-03-16T17:22:46;14.64;47.12
16505;HTU21D;8365;51.030;4.696;2023-03-16T17:25:17;14.62;48.13
16505;HTU21D;8365;51.030;4.696;2023-03-16T17:27:49;14.55;48.04